Time,TemperatureF,DewpointF,PressureIn,WindDirection,WindDirectionDegrees,WindSpeedMPH,WindSpeedGustMPH,Humidity,HourlyPrecipIn,Conditions,Clouds,dailyrainin,SoftwareType,DateUTC
2013-07-02 00:02:00,60.0,53.0,26.02,SW,217,9.0,11.0,77,0.00,,,0.06,weatherlink.com 1.10,2013-07-02 06:02:00,
2013-07-02 00:17:00,59.9,52.0,26.02,SW,235,6.0,11.0,76,0.00,,,0.00,weatherlink.com 1.10,2013-07-02 06:17:00,
2013-07-02 00:32:00,59.6,52.0,26.02,South,191,7.0,9.0,76,0.00,,,0.00,weatherlink.com 1.10,2013-07-02 06:32:00,
2013-07-02 00:47:00,59.0,52.0,26.01,SSW,200,8.0,9.0,78,0.00,,,0.00,weatherlink.com 1.10,2013-07-02 06:47:00,
2013-07-02 01:02:00,58.7,51.0,26.01,SW,224,6.0,11.0,76,0.00,,,0.00,weatherlink.com 1.10,2013-07-02 07:02:00,
2013-07-02 01:17:00,57.9,51.0,26.01,SW,229,4.0,8.0,78,0.00,,,0.00,weatherlink.com 1.10,2013-07-02 07:17:00,
2013-07-02 01:32:00,57.0,51.0,26.01,SW,228,5.0,6.0,80,0.00,,,0.00,weatherlink.com 1.10,2013-07-02 07:32:00,
2013-07-02 01:47:00,56.9,50.0,26.01,SW,228,5.0,7.0,79,0.00,,,0.00,weatherlink.com 1.10,2013-07-02 07:47:00,
2013-07-02 02:02:00,57.0,50.0,26.01,SSW,200,6.0,8.0,78,0.00,,,0.00,weatherlink.com 1.10,2013-07-02 08:02:00,
2013-07-02 02:17:00,57.0,50.0,26.01,South,177,4.0,8.0,78,0.00,,,0.00,weatherlink.com 1.10,2013-07-02 08:17:00,
2013-07-02 02:32:00,56.5,50.0,26.01,SW,219,5.0,6.0,80,0.00,,,0.00,weatherlink.com 1.10,2013-07-02 08:32:00,
2013-07-02 02:47:00,55.9,50.0,26.00,SSW,212,5.0,7.0,79,0.00,,,0.00,weatherlink.com 1.10,2013-07-02 08:47:00,
2013-07-02 03:02:00,55.7,49.0,26.00,SW,215,5.0,8.0,78,0.00,,,0.00,weatherlink.com 1.10,2013-07-02 09:02:00,
2013-07-02 03:17:00,55.5,49.0,26.00,SSE,157,3.0,8.0,78,0.00,,,0.00,weatherlink.com 1.10,2013-07-02 09:17:00,
2013-07-02 03:32:00,55.5,49.0,25.99,SSW,210,4.0,9.0,78,0.00,,,0.00,weatherlink.com 1.10,2013-07-02 09:32:00,
2013-07-02 03:47:00,55.2,49.0,25.99,SW,215,4.0,7.0,79,0.00,,,0.00,weatherlink.com 1.10,2013-07-02 09:47:00,
2013-07-02 04:02:00,54.9,49.0,25.99,WSW,256,4.0,7.0,79,0.00,,,0.00,weatherlink.com 1.10,2013-07-02 10:02:00,
2013-07-02 04:17:00,54.7,48.0,25.99,SW,235,5.0,7.0,78,0.00,,,0.00,weatherlink.com 1.10,2013-07-02 10:17:00,
2013-07-02 04:32:00,53.6,48.0,25.99,South,180,4.0,6.0,81,0.00,,,0.00,weatherlink.com 1.10,2013-07-02 10:32:00,
2013-07-02 04:47:00,53.3,48.0,25.99,SSE,164,2.0,6.0,83,0.00,,,0.00,weatherlink.com 1.10,2013-07-02 10:47:00,
2013-07-02 05:02:00,52.1,48.0,26.00,SE,138,7.0,14.0,85,0.00,,,0.00,weatherlink.com 1.10,2013-07-02 11:02:00,
2013-07-02 05:17:00,52.4,48.0,26.01,SE,132,7.0,9.0,84,0.00,,,0.00,weatherlink.com 1.10,2013-07-02 11:17:00,
2013-07-02 05:32:00,53.0,48.0,26.01,SSE,153,6.0,9.0,82,0.00,,,0.00,weatherlink.com 1.10,2013-07-02 11:32:00,
2013-07-02 05:47:00,53.7,47.0,26.01,SE,142,5.0,9.0,79,0.00,,,0.00,weatherlink.com 1.10,2013-07-02 11:47:00,
2013-07-02 06:03:00,53.8,47.0,26.01,SSW,207,7.0,11.0,78,0.00,,,0.00,weatherlink.com 1.10,2013-07-02 12:03:00,
2013-07-02 06:18:00,54.5,47.0,26.01,SSE,153,6.0,12.0,77,0.00,,,0.00,weatherlink.com 1.10,2013-07-02 12:18:00,
2013-07-02 06:33:00,55.6,48.0,26.01,SE,136,10.0,13.0,75,0.00,,,0.00,weatherlink.com 1.10,2013-07-02 12:33:00,
2013-07-02 06:48:00,57.2,48.0,26.00,SSW,203,9.0,14.0,71,0.00,,,0.00,weatherlink.com 1.10,2013-07-02 12:48:00,
2013-07-02 07:03:00,58.4,47.0,26.00,South,170,12.0,18.0,67,0.00,,,0.00,weatherlink.com 1.10,2013-07-02 13:03:00,
2013-07-02 07:18:00,58.4,48.0,26.00,South,174,5.0,18.0,68,0.00,,,0.00,weatherlink.com 1.10,2013-07-02 13:18:00,
2013-07-02 07:33:00,59.4,48.0,26.00,SE,142,8.0,22.0,65,0.00,,,0.00,weatherlink.com 1.10,2013-07-02 13:33:00,
2013-07-02 07:48:00,61.1,48.0,26.00,SSW,210,15.0,20.0,63,0.00,,,0.00,weatherlink.com 1.10,2013-07-02 13:48:00,
2013-07-02 08:03:00,62.4,48.0,26.00,SSE,166,9.0,20.0,59,0.00,,,0.00,weatherlink.com 1.10,2013-07-02 14:03:00,
2013-07-02 08:18:00,63.5,47.0,26.00,SW,226,13.0,21.0,56,0.00,,,0.00,weatherlink.com 1.10,2013-07-02 14:18:00,
2013-07-02 08:33:00,64.4,47.0,25.99,SSW,204,14.0,18.0,54,0.00,,,0.00,weatherlink.com 1.10,2013-07-02 14:33:00,
2013-07-02 08:48:00,65.0,46.0,26.00,WSW,250,8.0,20.0,50,0.00,,,0.00,weatherlink.com 1.10,2013-07-02 14:48:00,
2013-07-02 09:03:00,65.8,45.0,26.00,SW,218,17.0,22.0,48,0.00,,,0.00,weatherlink.com 1.10,2013-07-02 15:03:00,
2013-07-02 09:18:00,66.7,46.0,25.99,SW,226,13.0,22.0,48,0.00,,,0.00,weatherlink.com 1.10,2013-07-02 15:18:00,
2013-07-02 09:33:00,67.6,47.0,25.99,SW,233,11.0,19.0,48,0.00,,,0.00,weatherlink.com 1.10,2013-07-02 15:33:00,
2013-07-02 09:48:00,69.2,46.0,25.99,SSW,207,11.0,17.0,44,0.00,,,0.00,weatherlink.com 1.10,2013-07-02 15:48:00,
2013-07-02 10:03:00,70.4,45.0,25.99,WNW,283,7.0,19.0,41,0.00,,,0.00,weatherlink.com 1.10,2013-07-02 16:03:00,
2013-07-02 10:18:00,71.2,46.0,25.99,SW,225,17.0,17.0,40,0.00,,,0.00,weatherlink.com 1.10,2013-07-02 16:18:00,
2013-07-02 10:33:00,72.2,46.0,25.99,WSW,249,11.0,15.0,39,0.00,,,0.00,weatherlink.com 1.10,2013-07-02 16:33:00,
2013-07-02 10:48:00,72.9,46.0,25.99,WSW,246,9.0,16.0,39,0.00,,,0.00,weatherlink.com 1.10,2013-07-02 16:48:00,
2013-07-02 11:03:00,73.5,46.0,25.98,SW,232,4.0,12.0,38,0.00,,,0.00,weatherlink.com 1.10,2013-07-02 17:03:00,
2013-07-02 11:18:00,74.0,47.0,25.99,WSW,238,11.0,15.0,38,0.00,,,0.00,weatherlink.com 1.10,2013-07-02 17:18:00,
2013-07-02 11:33:00,74.6,48.0,25.98,SW,225,14.0,16.0,39,0.00,,,0.00,weatherlink.com 1.10,2013-07-02 17:33:00,
2013-07-02 11:48:00,75.5,48.0,25.98,SW,225,10.0,12.0,38,0.00,,,0.00,weatherlink.com 1.10,2013-07-02 17:48:00,
2013-07-02 12:03:00,76.0,49.0,25.97,SSW,212,7.0,13.0,38,0.00,,,0.00,weatherlink.com 1.10,2013-07-02 18:03:00,
2013-07-02 12:19:00,76.6,48.0,25.97,SSE,158,9.0,16.0,37,0.00,,,0.00,weatherlink.com 1.10,2013-07-02 18:19:00,
2013-07-02 12:34:00,76.1,48.0,25.96,WSW,255,4.0,17.0,37,0.00,,,0.00,weatherlink.com 1.10,2013-07-02 18:34:00,
2013-07-02 12:49:00,77.4,48.0,25.96,South,188,14.0,15.0,36,0.00,,,0.00,weatherlink.com 1.10,2013-07-02 18:49:00,
2013-07-02 13:04:00,77.1,47.0,25.96,SSW,193,10.0,16.0,35,0.00,,,0.00,weatherlink.com 1.10,2013-07-02 19:04:00,
2013-07-02 13:19:00,77.4,48.0,25.95,WSW,238,6.0,15.0,35,0.00,,,0.00,weatherlink.com 1.10,2013-07-02 19:19:00,
2013-07-02 13:34:00,77.8,48.0,25.95,South,175,7.0,17.0,35,0.00,,,0.00,weatherlink.com 1.10,2013-07-02 19:34:00,
2013-07-02 13:49:00,77.7,48.0,25.95,SE,136,12.0,18.0,35,0.00,,,0.00,weatherlink.com 1.10,2013-07-02 19:49:00,
2013-07-02 14:04:00,78.5,48.0,25.95,South,174,9.0,17.0,34,0.00,,,0.00,weatherlink.com 1.10,2013-07-02 20:04:00,
2013-07-02 14:19:00,77.7,48.0,25.95,South,190,7.0,17.0,35,0.00,,,0.00,weatherlink.com 1.10,2013-07-02 20:19:00,
2013-07-02 14:34:00,78.3,48.0,25.94,SSE,156,9.0,18.0,34,0.00,,,0.00,weatherlink.com 1.10,2013-07-02 20:34:00,
2013-07-02 14:49:00,78.8,48.0,25.94,SE,143,11.0,17.0,34,0.00,,,0.00,weatherlink.com 1.10,2013-07-02 20:49:00,
2013-07-02 15:04:00,77.3,48.0,25.94,ESE,123,8.0,17.0,35,0.00,,,0.00,weatherlink.com 1.10,2013-07-02 21:04:00,
2013-07-02 15:19:00,78.7,48.0,25.93,SE,128,13.0,18.0,34,0.00,,,0.00,weatherlink.com 1.10,2013-07-02 21:19:00,
2013-07-02 15:34:00,77.9,48.0,25.93,SSW,211,8.0,14.0,35,0.00,,,0.00,weatherlink.com 1.10,2013-07-02 21:34:00,
2013-07-02 15:49:00,77.4,48.0,25.93,East,101,5.0,15.0,35,0.00,,,0.00,weatherlink.com 1.10,2013-07-02 21:49:00,
2013-07-02 16:04:00,79.0,48.0,25.92,SE,134,3.0,13.0,34,0.00,,,0.00,weatherlink.com 1.10,2013-07-02 22:04:00,
2013-07-02 16:34:00,79.9,48.0,25.91,South,191,6.0,15.0,33,0.00,,,0.00,weatherlink.com 1.10,2013-07-02 22:34:00,
2013-07-02 16:49:00,80.3,49.0,25.91,SE,134,12.0,14.0,33,0.00,,,0.00,weatherlink.com 1.10,2013-07-02 22:49:00,
2013-07-02 17:04:00,79.7,48.0,25.91,South,180,8.0,15.0,33,0.00,,,0.00,weatherlink.com 1.10,2013-07-02 23:04:00,
2013-07-02 17:19:00,79.6,48.0,25.91,SSE,159,8.0,13.0,33,0.00,,,0.00,weatherlink.com 1.10,2013-07-02 23:19:00,
2013-07-02 17:34:00,79.1,48.0,25.90,SE,125,6.0,15.0,34,0.00,,,0.00,weatherlink.com 1.10,2013-07-02 23:34:00,
2013-07-02 17:49:00,79.4,47.0,25.90,ESE,112,8.0,14.0,32,0.00,,,0.00,weatherlink.com 1.10,2013-07-02 23:49:00,
2013-07-02 18:04:00,78.9,47.0,25.90,ESE,103,5.0,11.0,33,0.00,,,0.00,weatherlink.com 1.10,2013-07-03 00:04:00,
2013-07-02 18:19:00,78.9,47.0,25.90,SE,139,8.0,12.0,33,0.00,,,0.00,weatherlink.com 1.10,2013-07-03 00:19:00,
2013-07-02 18:34:00,78.6,47.0,25.90,SSE,153,5.0,10.0,33,0.00,,,0.00,weatherlink.com 1.10,2013-07-03 00:34:00,
2013-07-02 18:49:00,78.6,47.0,25.90,SE,126,6.0,10.0,33,0.00,,,0.00,weatherlink.com 1.10,2013-07-03 00:49:00,
2013-07-02 19:04:00,78.1,47.0,25.90,SE,145,5.0,8.0,34,0.00,,,0.00,weatherlink.com 1.10,2013-07-03 01:04:00,
2013-07-02 19:19:00,77.3,49.0,25.90,SSE,156,6.0,9.0,37,0.00,,,0.00,weatherlink.com 1.10,2013-07-03 01:19:00,
2013-07-02 19:34:00,76.7,50.0,25.89,SE,146,5.0,9.0,39,0.00,,,0.00,weatherlink.com 1.10,2013-07-03 01:34:00,
2013-07-02 20:04:00,73.3,51.0,25.89,South,177,3.0,6.0,45,0.00,,,0.00,weatherlink.com 1.10,2013-07-03 02:04:00,
2013-07-02 20:19:00,71.2,52.0,25.89,SE,138,4.0,5.0,50,0.00,,,0.00,weatherlink.com 1.10,2013-07-03 02:19:00,
2013-07-02 20:34:00,68.9,51.0,25.89,SSE,160,4.0,5.0,54,0.00,,,0.00,weatherlink.com 1.10,2013-07-03 02:34:00,
2013-07-02 20:49:00,68.3,51.0,25.89,SSE,155,4.0,5.0,54,0.00,,,0.00,weatherlink.com 1.10,2013-07-03 02:49:00,
2013-07-02 21:04:00,67.4,50.0,25.89,South,174,4.0,5.0,54,0.00,,,0.00,weatherlink.com 1.10,2013-07-03 03:04:00,
2013-07-02 21:19:00,66.8,50.0,25.90,South,170,4.0,6.0,56,0.00,,,0.00,weatherlink.com 1.10,2013-07-03 03:19:00,
2013-07-02 21:34:00,65.3,50.0,25.90,SSE,153,5.0,6.0,59,0.00,,,0.00,weatherlink.com 1.10,2013-07-03 03:34:00,
2013-07-02 21:49:00,64.8,50.0,25.90,SSE,150,3.0,6.0,60,0.00,,,0.00,weatherlink.com 1.10,2013-07-03 03:49:00,
2013-07-02 22:04:00,64.6,50.0,25.90,SSW,193,4.0,8.0,60,0.00,,,0.00,weatherlink.com 1.10,2013-07-03 04:04:00,
2013-07-02 22:19:00,65.2,50.0,25.90,SW,215,7.0,9.0,59,0.00,,,0.00,weatherlink.com 1.10,2013-07-03 04:19:00,
2013-07-02 22:35:00,64.3,50.0,25.90,SSW,197,4.0,9.0,61,0.00,,,0.00,weatherlink.com 1.10,2013-07-03 04:35:00,
2013-07-02 22:49:00,64.4,50.0,25.90,SW,215,6.0,10.0,61,0.00,,,0.00,weatherlink.com 1.10,2013-07-03 04:49:00,
2013-07-02 23:04:00,63.4,50.0,25.90,WSW,240,8.0,8.0,63,0.00,,,0.00,weatherlink.com 1.10,2013-07-03 05:04:00,
2013-07-02 23:19:00,63.2,50.0,25.90,SW,234,5.0,12.0,63,0.00,,,0.00,weatherlink.com 1.10,2013-07-03 05:19:00,
2013-07-02 23:49:00,61.8,50.0,25.89,South,181,3.0,8.0,66,0.00,,,0.00,weatherlink.com 1.10,2013-07-03 05:49:00,